Time;durP1;ratioP1;P1;durP2;ratioP2;P2;SDS_P1;SDS_P2;PMS_P1;PMS_P2;Temp;Humidity;BMP_temperature;BMP_pressure;BME280_temperature;BME280_humidity;BME280_pressure;Samples;Min_cycle;Max_cycle;Signal;HPM_P1;HPM_P2
2023/12/11 00:03:25;;;;;;;18.73;7.57;;;;;;;-12.09;88.80;101457.13;10443789;28;20029;-65
2023/12/11 00:08:28;;;;;;;16.58;6.20;;;;;;;-12.06;88.79;101454.22;10445969;28;20037;-65
2023/12/11 00:13:31;;;;;;;13.88;6.68;;;;;;;-12.12;88.54;101457.34;10442063;28;20037;-65
2023/12/11 00:18:33;;;;;;;7.82;3.95;;;;;;;-12.15;88.58;101453.09;10444559;28;20056;-65
2023/12/11 00:23:36;;;;;;;15.68;6.97;;;;;;;-12.19;88.74;101449.84;10444708;28;20041;-65
2023/12/11 00:28:39;;;;;;;16.88;8.05;;;;;;;-12.14;88.19;101453.97;10443388;28;20524;-65
2023/12/11 00:33:42;;;;;;;18.52;6.32;;;;;;;-12.02;88.99;101453.88;10441385;28;20040;-65
2023/12/11 00:38:44;;;;;;;12.15;6.10;;;;;;;-12.11;88.47;101443.16;10442642;28;20045;-65
2023/12/11 00:43:47;;;;;;;10.75;6.43;;;;;;;-12.09;88.57;101441.25;10440832;28;20064;-65
2023/12/11 00:48:50;;;;;;;14.88;6.45;;;;;;;-12.09;88.62;101444.72;10443074;28;20046;-65
2023/12/11 00:53:52;;;;;;;20.13;6.95;;;;;;;-12.03;89.00;101436.31;10440254;28;20038;-65
2023/12/11 00:58:54;;;;;;;18.75;7.32;;;;;;;-12.02;88.89;101426.59;10443899;28;20460;-65
2023/12/11 01:03:57;;;;;;;15.35;6.43;;;;;;;-12.06;88.78;101415.41;10438397;28;20095;-65
2023/12/11 01:08:59;;;;;;;19.65;8.63;;;;;;;-12.00;88.74;101414.91;10441264;28;20044;-64
2023/12/11 01:14:02;;;;;;;16.33;7.35;;;;;;;-11.94;88.33;101406.53;10436874;28;20037;-64
2023/12/11 01:19:05;;;;;;;19.02;8.52;;;;;;;-11.88;88.88;101413.16;10426800;28;20394;-64
2023/12/11 01:24:07;;;;;;;14.90;7.25;;;;;;;-11.91;89.07;101408.94;10442574;28;20037;-64
2023/12/11 01:29:09;;;;;;;16.10;7.63;;;;;;;-11.85;89.06;101409.41;10441641;28;20429;-64
2023/12/11 01:34:12;;;;;;;17.30;8.27;;;;;;;-11.81;88.43;101398.47;10439959;28;20501;-64
2023/12/11 01:39:14;;;;;;;14.98;7.63;;;;;;;-11.84;88.44;101384.63;10441533;28;20045;-64
2023/12/11 01:44:17;;;;;;;17.33;7.72;;;;;;;-11.67;89.19;101377.03;10433027;28;20588;-64
2023/12/11 01:49:19;;;;;;;13.82;6.75;;;;;;;-11.64;88.53;101358.25;10442632;28;20041;-65
2023/12/11 01:54:22;;;;;;;14.57;7.65;;;;;;;-11.60;88.41;101372.13;10440360;28;20041;-64
2023/12/11 01:59:24;;;;;;;18.13;8.55;;;;;;;-11.51;88.83;101373.19;10436621;28;20045;-64
2023/12/11 02:04:27;;;;;;;15.80;7.13;;;;;;;-11.56;88.42;101363.81;10440322;28;20041;-65
2023/12/11 02:09:29;;;;;;;15.43;8.75;;;;;;;-11.55;88.88;101372.59;10441005;28;20512;-65
2023/12/11 02:14:32;;;;;;;15.57;7.30;;;;;;;-11.54;88.37;101360.19;10438265;28;20036;-64
2023/12/11 02:19:34;;;;;;;18.42;8.95;;;;;;;-11.51;89.07;101358.16;10441280;28;20042;-65
2023/12/11 02:24:43;;;;;;;16.98;6.35;;;;;;;-11.41;89.07;101337.94;10440220;28;20044;-65
2023/12/11 02:29:45;;;;;;;13.32;7.28;;;;;;;-11.42;88.72;101340.72;10439342;28;20120;-65
2023/12/11 02:34:49;;;;;;;16.92;8.55;;;;;;;-11.38;88.71;101340.34;10430571;28;20519;-65
2023/12/11 02:39:51;;;;;;;17.60;7.97;;;;;;;-11.42;88.57;101335.41;10449633;28;20394;-64
2023/12/11 02:44:54;;;;;;;14.23;7.47;;;;;;;-11.42;88.71;101346.84;10448574;28;20452;-65
2023/12/11 02:49:56;;;;;;;14.32;6.75;;;;;;;-11.40;88.96;101344.91;10449644;28;20041;-65
2023/12/11 02:54:59;;;;;;;15.25;7.45;;;;;;;-11.33;88.42;101345.25;10447889;28;20037;-65
2023/12/11 03:00:01;;;;;;;16.05;7.63;;;;;;;-11.31;88.09;101338.84;10445956;28;20056;-64
2023/12/11 03:05:04;;;;;;;17.50;8.25;;;;;;;-11.34;88.35;101343.56;10448257;28;20045;-64
2023/12/11 03:10:07;;;;;;;13.07;6.22;;;;;;;-11.32;88.86;101323.94;10442392;28;20033;-64
2023/12/11 03:15:10;;;;;;;16.60;7.97;;;;;;;-11.30;88.70;101332.59;10438557;28;20041;-65
2023/12/11 03:20:12;;;;;;;17.10;8.60;;;;;;;-11.33;88.95;101342.59;10443957;28;20037;-64
2023/12/11 03:25:15;;;;;;;16.63;8.15;;;;;;;-11.30;88.70;101329.94;10445526;28;20544;-65
2023/12/11 03:30:17;;;;;;;15.07;7.85;;;;;;;-11.21;88.30;101319.59;10419848;28;20040;-65
2023/12/11 03:35:19;;;;;;;15.18;7.65;;;;;;;-11.24;89.21;101322.50;10424505;28;20045;-64
2023/12/11 03:40:23;;;;;;;17.55;8.68;;;;;;;-11.15;88.46;101311.13;10424231;28;20053;-64
2023/12/11 03:45:25;;;;;;;16.52;6.60;;;;;;;-11.19;89.05;101315.84;10445060;28;20416;-65
2023/12/11 03:50:28;;;;;;;13.23;6.45;;;;;;;-11.12;89.43;101294.97;10444716;28;20049;-65
2023/12/11 03:55:31;;;;;;;14.73;5.32;;;;;;;-11.21;88.59;101293.94;10444141;28;20045;-66
2023/12/11 04:00:34;;;;;;;13.18;5.82;;;;;;;-11.22;89.21;101286.97;10443491;28;20513;-65
2023/12/11 04:05:36;;;;;;;11.77;4.70;;;;;;;-11.18;89.56;101291.03;10443426;28;20033;-65
2023/12/11 04:10:38;;;;;;;6.35;4.07;;;;;;;-11.20;89.63;101282.38;10445938;28;20053;-64
2023/12/11 04:15:41;;;;;;;11.93;6.57;;;;;;;-11.17;89.67;101289.22;10444916;28;20029;-63
2023/12/11 04:20:43;;;;;;;11.50;5.90;;;;;;;-11.15;90.16;101288.13;10445874;28;20041;-65
2023/12/11 04:25:46;;;;;;;12.15;5.80;;;;;;;-11.10;90.02;101271.88;10445131;28;20048;-64
2023/12/11 04:30:48;;;;;;;10.52;5.00;;;;;;;-11.09;90.32;101270.91;10446130;28;20068;-65
2023/12/11 04:35:51;;;;;;;8.63;4.90;;;;;;;-11.01;89.83;101269.31;10440179;28;20029;-66
2023/12/11 04:40:53;;;;;;;13.82;7.03;;;;;;;-11.00;89.89;101268.34;10444397;28;20544;-64
2023/12/11 04:45:55;;;;;;;14.82;6.35;;;;;;;-10.97;90.58;101272.53;10443756;28;20037;-66
2023/12/11 04:50:58;;;;;;;12.02;6.07;;;;;;;-10.98;90.51;101261.09;10445296;28;20041;-65
2023/12/11 04:56:05;;;;;;;13.05;5.07;;;;;;;-10.86;90.24;101258.41;10461385;28;20033;-65
2023/12/11 05:01:08;;;;;;;10.20;4.43;;;;;;;-10.77;90.71;101250.50;10455028;28;20041;-64
2023/12/11 05:06:10;;;;;;;6.88;3.83;;;;;;;-10.74;89.84;101249.44;10441990;28;20054;-64
2023/12/11 05:11:12;;;;;;;11.82;4.32;;;;;;;-10.79;90.68;101231.25;10444226;28;20037;-65
2023/12/11 05:16:15;;;;;;;9.40;4.47;;;;;;;-10.67;90.37;101245.28;10439432;28;20041;-65
2023/12/11 05:21:17;;;;;;;15.82;6.13;;;;;;;-10.78;90.46;101230.28;10433430;28;20044;-65
2023/12/11 05:26:20;;;;;;;13.52;6.07;;;;;;;-10.70;90.26;101233.13;10440214;28;20444;-65
2023/12/11 05:31:22;;;;;;;18.20;6.63;;;;;;;-10.74;89.87;101228.22;10441743;28;20063;-65
2023/12/11 05:36:25;;;;;;;15.10;4.95;;;;;;;-10.69;90.35;101233.97;10442721;28;20402;-64
2023/12/11 05:41:28;;;;;;;20.38;7.50;;;;;;;-10.69;90.66;101240.13;10442018;28;20038;-65
2023/12/11 05:46:31;;;;;;;10.70;4.63;;;;;;;-10.66;90.75;101247.81;10441774;28;20429;-64
2023/12/11 05:51:33;;;;;;;8.60;4.10;;;;;;;-10.68;90.82;101233.00;10442230;28;20048;-64
2023/12/11 05:56:35;;;;;;;12.15;5.50;;;;;;;-10.68;90.47;101246.25;10436851;28;20417;-65
2023/12/11 06:01:39;;;;;;;11.90;5.60;;;;;;;-10.66;90.67;101228.41;10440597;28;20041;-65
2023/12/11 06:06:41;;;;;;;7.25;4.35;;;;;;;-10.62;90.59;101232.47;10436981;28;20040;-65
2023/12/11 06:11:43;;;;;;;11.05;4.63;;;;;;;-10.67;90.75;101216.97;10440231;28;20088;-65
2023/12/11 06:16:46;;;;;;;9.57;4.22;;;;;;;-10.65;90.68;101220.31;10440574;28;20037;-65
2023/12/11 06:21:49;;;;;;;12.13;3.85;;;;;;;-10.57;91.08;101219.69;10439480;28;20524;-65
2023/12/11 06:26:51;;;;;;;8.20;3.45;;;;;;;-10.63;91.42;101220.19;10444577;28;20052;-64
2023/12/11 06:31:54;;;;;;;6.10;3.67;;;;;;;-10.60;91.17;101211.13;10444099;28;20038;-64
2023/12/11 06:36:57;;;;;;;14.93;7.13;;;;;;;-10.59;90.72;101218.09;10437652;28;20044;-64
2023/12/11 06:41:59;;;;;;;6.70;3.80;;;;;;;-10.77;90.93;101210.75;10439221;28;20046;-65
2023/12/11 06:47:02;;;;;;;15.43;5.25;;;;;;;-10.77;91.01;101228.47;10438735;28;20057;-64
2023/12/11 06:52:05;;;;;;;5.10;2.78;;;;;;;-10.77;91.84;101221.34;10440516;28;20045;-64
2023/12/11 06:57:08;;;;;;;4.68;3.35;;;;;;;-10.80;91.66;101226.91;10439622;28;20053;-66
2023/12/11 07:02:10;;;;;;;9.60;5.28;;;;;;;-10.80;92.01;101231.38;10438265;28;20084;-66
2023/12/11 07:07:14;;;;;;;6.47;2.92;;;;;;;-10.78;92.15;101240.03;10438133;28;20041;-66
2023/12/11 07:12:17;;;;;;;19.58;5.53;;;;;;;-10.78;92.56;101240.03;10441540;28;20045;-65
2023/12/11 07:17:20;;;;;;;11.98;5.65;;;;;;;-10.76;92.25;101214.22;10439191;28;20029;-65
2023/12/11 07:22:24;;;;;;;3.08;2.13;;;;;;;-10.72;92.74;101213.03;10440882;28;20041;-65
2023/12/11 07:27:26;;;;;;;12.23;4.68;;;;;;;-10.79;92.34;101202.09;10451522;28;20041;-65
2023/12/11 07:32:29;;;;;;;11.93;5.03;;;;;;;-10.73;93.13;101196.28;10457400;28;20048;-65
2023/12/11 07:37:32;;;;;;;12.15;5.75;;;;;;;-10.70;93.08;101206.63;10446545;28;20029;-64
2023/12/11 07:42:34;;;;;;;8.20;2.53;;;;;;;-10.72;92.53;101205.06;10441814;28;20045;-65
2023/12/11 07:47:37;;;;;;;12.65;5.63;;;;;;;-10.71;92.38;101202.28;10448377;28;20041;-64
2023/12/11 07:52:41;;;;;;;13.82;6.00;;;;;;;-10.62;92.86;101216.56;10444970;28;20041;-64
2023/12/11 07:57:43;;;;;;;5.03;3.80;;;;;;;-10.52;92.88;101208.69;10411400;28;20037;-66
2023/12/11 08:02:45;;;;;;;5.80;2.85;;;;;;;-10.55;92.14;101212.44;10444536;28;20049;-65
2023/12/11 08:07:48;;;;;;;18.17;6.43;;;;;;;-10.51;92.50;101207.69;10445569;28;20041;-65
2023/12/11 08:12:51;;;;;;;9.27;4.28;;;;;;;-10.53;91.95;101205.19;10445963;28;20658;-65
2023/12/11 08:17:54;;;;;;;10.50;5.15;;;;;;;-10.51;92.28;101197.09;10440686;28;20044;-65
2023/12/11 08:22:56;;;;;;;11.80;4.85;;;;;;;-10.49;92.79;101185.38;10444033;28;20046;-66
2023/12/11 08:27:59;;;;;;;4.35;2.70;;;;;;;-10.54;92.03;101184.94;10444724;28;20540;-66
2023/12/11 08:33:01;;;;;;;11.77;6.45;;;;;;;-10.49;92.01;101177.41;10442266;28;20049;-66
2023/12/11 08:38:04;;;;;;;5.95;4.05;;;;;;;-10.52;93.03;101171.53;10429096;28;20402;-65
2023/12/11 08:43:06;;;;;;;11.57;4.97;;;;;;;-10.51;92.60;101166.09;10436196;28;20053;-68
2023/12/11 08:48:10;;;;;;;6.85;3.90;;;;;;;-10.46;92.67;101160.41;10439908;28;20041;-66
2023/12/11 08:53:12;;;;;;;6.05;3.60;;;;;;;-10.45;92.86;101162.06;10444127;28;20045;-66
2023/12/11 08:58:16;;;;;;;14.20;6.45;;;;;;;-10.39;92.74;101156.25;10436582;28;20068;-65
2023/12/11 09:03:18;;;;;;;12.98;5.18;;;;;;;-10.40;93.63;101138.66;10440215;28;20430;-67
2023/12/11 09:08:21;;;;;;;4.05;2.40;;;;;;;-10.36;94.09;101129.47;10442582;28;20029;-64
2023/12/11 09:13:23;;;;;;;13.52;5.65;;;;;;;-10.29;94.42;101124.44;10403655;28;20038;-64
2023/12/11 09:18:25;;;;;;;14.27;6.22;;;;;;;-10.29;94.36;101125.28;10435085;28;20037;-66
2023/12/11 09:23:29;;;;;;;11.07;5.57;;;;;;;-10.18;93.52;101105.75;10442982;28;20513;-66
2023/12/11 09:28:31;;;;;;;14.15;5.93;;;;;;;-10.10;93.54;101103.25;10436975;28;20033;-65
2023/12/11 09:33:33;;;;;;;11.40;5.13;;;;;;;-10.10;93.24;101087.31;10443787;28;20045;-65
2023/12/11 09:38:36;;;;;;;12.93;5.78;;;;;;;-10.08;93.20;101086.19;10443759;28;20041;-65
2023/12/11 09:43:39;;;;;;;2.50;1.80;;;;;;;-10.06;91.71;101076.31;10443277;28;20049;-65
2023/12/11 09:48:42;;;;;;;11.30;4.00;;;;;;;-10.05;92.22;101087.75;10428392;28;20046;-65
2023/12/11 09:53:45;;;;;;;2.75;1.80;;;;;;;-10.01;91.54;101081.19;10402285;28;20088;-65
2023/12/11 09:58:48;;;;;;;5.88;3.80;;;;;;;-9.95;91.07;101063.88;10402008;28;20046;-65
2023/12/11 10:03:50;;;;;;;10.75;4.13;;;;;;;-9.88;90.71;101038.47;10420093;28;20424;-64
2023/12/11 10:08:53;;;;;;;3.72;3.20;;;;;;;-9.92;90.23;101048.50;10442885;28;20056;-66
2023/12/11 10:14:10;;;;;;;10.68;5.22;;;;;;;-9.90;90.06;101053.66;10442423;28;20573;-65
2023/12/11 10:19:12;;;;;;;6.18;3.50;;;;;;;-9.85;89.96;101046.97;10425263;28;20045;-66
2023/12/11 10:24:15;;;;;;;16.70;6.88;;;;;;;-9.78;89.16;101034.81;10421130;28;20390;-65
2023/12/11 10:29:19;;;;;;;15.27;5.95;;;;;;;-9.79;89.96;101038.44;10442485;28;20042;-65
2023/12/11 10:34:50;;;;;;;12.82;4.50;;;;;;;-9.73;89.98;101029.06;10442303;28;20048;-65
2023/12/11 10:39:53;;;;;;;13.98;5.53;;;;;;;-9.74;89.31;101038.03;10439321;28;20433;-65
2023/12/11 10:44:56;;;;;;;5.03;2.92;;;;;;;-9.79;89.84;101022.53;10442074;28;20045;-64
2023/12/11 10:50:02;;;;;;;5.28;3.03;;;;;;;-9.77;89.58;101014.41;10442811;28;20065;-64
2023/12/11 10:55:05;;;;;;;3.88;3.00;;;;;;;-9.74;90.35;101006.16;10422631;28;20038;-64
2023/12/11 11:00:07;;;;;;;12.82;6.53;;;;;;;-9.71;90.38;101008.56;10432531;28;20045;-65
2023/12/11 11:05:11;;;;;;;10.98;5.60;;;;;;;-9.64;90.42;100995.53;10448934;28;20041;-64
2023/12/11 11:10:22;;;;;;;6.13;3.28;;;;;;;-9.66;90.29;101005.47;10441731;28;20033;-64
2023/12/11 11:15:25;;;;;;;11.38;5.43;;;;;;;-9.66;91.17;100979.75;10409153;28;20057;-64
2023/12/11 11:20:37;;;;;;;5.25;2.28;;;;;;;-9.65;90.59;100978.78;10423171;28;20037;-64
2023/12/11 11:25:40;;;;;;;6.95;4.15;;;;;;;-9.67;90.43;100978.06;10407611;28;20068;-64
2023/12/11 11:30:43;;;;;;;7.55;3.78;;;;;;;-9.67;90.08;100972.75;10414081;28;20037;-65
2023/12/11 11:35:46;;;;;;;6.95;4.15;;;;;;;-9.60;90.78;100947.31;10437254;28;20417;-64
2023/12/11 11:40:51;;;;;;;12.60;6.35;;;;;;;-9.63;90.45;100968.84;10409722;28;20046;-64
2023/12/11 11:45:55;;;;;;;7.53;3.83;;;;;;;-9.65;90.79;100948.72;10419015;28;20054;-64
2023/12/11 11:50:57;;;;;;;9.88;4.90;;;;;;;-9.60;90.84;100957.94;10432961;28;20041;-64
2023/12/11 11:56:01;;;;;;;9.50;4.50;;;;;;;-9.57;90.62;100935.53;10447165;28;20046;-64
2023/12/11 12:01:04;;;;;;;12.63;5.70;;;;;;;-9.56;91.23;100926.59;10442571;28;20520;-64
2023/12/11 12:06:08;;;;;;;6.10;3.53;;;;;;;-9.60;91.37;100919.91;10437614;28;20045;-65
2023/12/11 12:11:11;;;;;;;9.75;4.47;;;;;;;-9.57;92.28;100914.31;10422672;28;20034;-66
2023/12/11 12:16:27;;;;;;;5.43;3.22;;;;;;;-9.58;91.66;100913.47;10411898;28;20037;-65
2023/12/11 12:21:30;;;;;;;10.65;5.15;;;;;;;-9.59;91.49;100903.00;10401227;28;20052;-67
2023/12/11 12:26:34;;;;;;;9.25;2.55;;;;;;;-9.60;91.45;100910.13;10424538;28;20080;-65
2023/12/11 12:31:37;;;;;;;8.30;4.70;;;;;;;-9.58;92.08;100913.47;10434925;28;20038;-65
2023/12/11 12:36:40;;;;;;;6.40;2.88;;;;;;;-9.57;91.57;100898.38;10411051;28;20524;-65
2023/12/11 12:41:43;;;;;;;14.48;5.65;;;;;;;-9.52;91.99;100889.00;10444271;28;20071;-64
2023/12/11 12:46:46;;;;;;;9.93;4.85;;;;;;;-9.58;91.06;100880.75;10420226;28;20532;-65
2023/12/11 12:51:50;;;;;;;8.23;4.88;;;;;;;-9.61;91.91;100875.75;10440564;28;20417;-65
2023/12/11 12:56:55;;;;;;;9.65;4.28;;;;;;;-9.59;91.89;100873.78;10428637;28;20038;-65
2023/12/11 13:01:57;;;;;;;6.75;3.55;;;;;;;-9.59;91.74;100871.13;10436831;28;20500;-64
2023/12/11 13:07:18;;;;;;;6.15;3.50;;;;;;;-9.49;91.63;100877.25;10443475;28;20033;-66
2023/12/11 13:12:21;;;;;;;8.82;4.43;;;;;;;-9.54;91.84;100853.78;10436155;28;20515;-64
2023/12/11 13:17:23;;;;;;;9.55;4.50;;;;;;;-9.53;91.49;100847.47;10415066;28;20052;-65
2023/12/11 13:22:25;;;;;;;13.48;5.95;;;;;;;-9.51;91.74;100856.13;10443496;28;20040;-65
2023/12/11 13:27:29;;;;;;;8.85;4.20;;;;;;;-9.50;92.40;100836.56;10442056;28;20033;-64
2023/12/11 13:32:32;;;;;;;7.00;3.72;;;;;;;-9.50;92.52;100839.22;10439421;28;20041;-63
2023/12/11 13:37:34;;;;;;;6.30;3.22;;;;;;;-9.50;92.29;100841.88;10437811;28;20041;-63
2023/12/11 13:42:37;;;;;;;8.63;4.60;;;;;;;-9.46;92.34;100839.75;10439234;28;20558;-64
2023/12/11 13:47:39;;;;;;;10.45;4.63;;;;;;;-9.44;91.61;100833.31;10432296;28;20040;-62
2023/12/11 13:52:42;;;;;;;15.73;5.47;;;;;;;-9.43;91.93;100818.19;10438285;28;20049;-62
2023/12/11 13:57:44;;;;;;;9.25;4.35;;;;;;;-9.44;91.96;100816.53;10437895;28;20033;-63
2023/12/11 14:02:46;;;;;;;9.60;4.40;;;;;;;-9.44;92.25;100820.03;10436937;28;20627;-63
2023/12/11 14:07:49;;;;;;;9.30;4.43;;;;;;;-9.39;92.16;100822.22;10437043;28;20041;-65
2023/12/11 14:12:51;;;;;;;12.95;5.60;;;;;;;-9.45;92.57;100821.00;10431675;28;20045;-64
2023/12/11 14:17:53;;;;;;;9.70;5.10;;;;;;;-9.44;93.26;100814.72;10437424;28;20044;-64
2023/12/11 14:22:56;;;;;;;10.32;4.57;;;;;;;-9.43;92.55;100808.41;10435784;28;20524;-63
2023/12/11 14:28:03;;;;;;;5.65;3.28;;;;;;;-9.37;93.41;100819.41;10441222;28;20048;-64
2023/12/11 14:33:06;;;;;;;6.45;3.05;;;;;;;-9.37;93.57;100808.78;10441786;28;20037;-64
2023/12/11 14:38:09;;;;;;;12.88;4.82;;;;;;;-9.34;93.42;100803.22;10442641;28;20422;-64
2023/12/11 14:43:13;;;;;;;10.07;5.13;;;;;;;-9.34;93.03;100809.38;10440294;28;20539;-62
2023/12/11 14:48:15;;;;;;;10.82;5.40;;;;;;;-9.31;92.84;100806.41;10431788;28;20033;-64
2023/12/11 14:53:17;;;;;;;9.77;4.80;;;;;;;-9.30;92.99;100801.91;10429693;28;20422;-65
2023/12/11 14:58:20;;;;;;;7.22;3.38;;;;;;;-9.29;93.36;100808.91;10414959;28;20041;-63
2023/12/11 15:03:22;;;;;;;6.50;3.50;;;;;;;-9.26;93.56;100784.69;10449844;28;20436;-63
2023/12/11 15:08:24;;;;;;;7.88;3.80;;;;;;;-9.28;93.26;100782.19;10443135;28;20033;-64
2023/12/11 15:13:27;;;;;;;9.38;4.80;;;;;;;-9.26;93.68;100779.38;10442711;28;20548;-63
2023/12/11 15:18:30;;;;;;;8.07;4.80;;;;;;;-9.24;93.79;100774.75;10425062;28;20042;-63
2023/12/11 15:23:38;;;;;;;9.68;4.30;;;;;;;-9.18;93.41;100775.00;10434812;28;20040;-64
2023/12/11 15:28:41;;;;;;;;;;;;;;;-9.18;92.42;100776.81;10454411;28;20038;-63
2023/12/11 15:33:44;;;;;;;10.45;3.10;;;;;;;-9.17;92.96;100762.53;10443667;28;19927;-63
2023/12/11 15:38:47;;;;;;;8.75;4.30;;;;;;;-9.12;93.07;100769.06;10412915;28;20038;-64
2023/12/11 15:43:49;;;;;;;11.55;4.97;;;;;;;-9.09;93.13;100770.59;10436903;28;20449;-63
2023/12/11 15:48:53;;;;;;;11.77;5.55;;;;;;;-9.09;92.75;100781.22;10415845;28;20120;-63
2023/12/11 15:53:57;;;;;;;10.10;5.10;;;;;;;-9.07;93.30;100754.47;10446117;28;20044;-62
2023/12/11 15:59:00;;;;;;;11.45;5.20;;;;;;;-9.01;93.22;100759.22;10442451;28;20042;-64
2023/12/11 16:04:02;;;;;;;8.07;3.45;;;;;;;-9.03;93.10;100767.31;10418631;28;20042;-64
2023/12/11 16:09:05;;;;;;;11.57;4.75;;;;;;;-8.98;92.66;100750.94;10431261;28;20037;-65
2023/12/11 16:14:07;;;;;;;3.15;1.90;;;;;;;-8.93;93.16;100745.97;10422365;28;20040;-63
2023/12/11 16:19:10;;;;;;;10.57;4.93;;;;;;;-8.99;93.20;100765.22;10448736;28;20069;-63
2023/12/11 16:24:12;;;;;;;9.48;4.68;;;;;;;-8.94;93.07;100757.59;10428478;28;20104;-63
2023/12/11 16:29:15;;;;;;;4.70;2.65;;;;;;;-8.86;92.85;100745.22;10446254;28;20041;-63
2023/12/11 16:34:18;;;;;;;9.80;4.35;;;;;;;-8.88;92.97;100741.88;10420121;28;20045;-64
2023/12/11 16:39:21;;;;;;;5.93;3.08;;;;;;;-8.91;92.79;100739.53;10443287;28;20033;-63
2023/12/11 16:44:23;;;;;;;10.18;5.30;;;;;;;-8.91;93.06;100731.53;10444114;28;20061;-64
2023/12/11 16:49:28;;;;;;;12.85;7.25;;;;;;;-8.86;93.67;100723.94;10439397;28;20386;-65
2023/12/11 16:54:31;;;;;;;12.65;7.40;;;;;;;-8.83;93.24;100718.34;10434971;28;20550;-70
2023/12/11 16:59:33;;;;;;;14.73;8.18;;;;;;;-8.79;93.25;100712.69;10437066;28;20476;-67
2023/12/11 17:04:36;;;;;;;15.50;7.90;;;;;;;-8.77;93.98;100695.59;10437541;28;20037;-68
2023/12/11 17:09:40;;;;;;;13.00;7.97;;;;;;;-8.76;93.58;100702.59;10439072;28;20509;-67
2023/12/11 17:14:43;;;;;;;10.38;6.30;;;;;;;-8.73;93.31;100688.13;10431441;28;20033;-69
2023/12/11 17:19:46;;;;;;;14.02;7.88;;;;;;;-8.72;93.43;100709.25;10437756;28;20048;-68
2023/12/11 17:24:48;;;;;;;12.40;7.80;;;;;;;-8.71;93.50;100705.59;10439103;28;20037;-70
2023/12/11 17:29:51;;;;;;;12.82;7.15;;;;;;;-8.67;93.88;100680.38;10441519;28;20049;-68
2023/12/11 17:34:53;;;;;;;10.02;6.93;;;;;;;-8.65;93.87;100683.72;10439779;28;20626;-67
2023/12/11 17:39:56;;;;;;;11.38;6.30;;;;;;;-8.64;94.33;100672.09;10432693;28;20038;-69
2023/12/11 17:45:02;;;;;;;11.93;6.68;;;;;;;-8.59;94.48;100668.97;10416449;28;20141;-70
2023/12/11 17:50:09;;;;;;;12.40;7.75;;;;;;;-8.58;94.04;100676.78;10437557;28;20642;-68
2023/12/11 17:55:12;;;;;;;12.05;7.00;;;;;;;-8.56;93.86;100665.97;10432462;28;20040;-68
2023/12/11 18:00:15;;;;;;;13.02;7.28;;;;;;;-8.55;93.98;100670.31;10440200;28;20048;-69
2023/12/11 18:05:18;;;;;;;10.95;7.05;;;;;;;-8.53;93.87;100660.34;10438479;28;20527;-69
2023/12/11 18:10:22;;;;;;;15.00;6.65;;;;;;;-8.50;93.80;100638.75;10438401;28;20523;-69
2023/12/11 18:15:26;;;;;;;11.95;6.57;;;;;;;-8.48;93.33;100649.25;10430057;28;20029;-68
2023/12/11 18:20:29;;;;;;;12.25;6.97;;;;;;;-8.41;93.21;100647.59;10435893;28;20041;-69
2023/12/11 18:25:31;;;;;;;10.63;5.85;;;;;;;-8.40;92.75;100643.94;10438833;28;20037;-68
2023/12/11 18:30:34;;;;;;;12.85;7.20;;;;;;;-8.39;92.88;100641.13;10428707;28;20060;-68
2023/12/11 18:35:37;;;;;;;9.93;6.38;;;;;;;-8.34;93.50;100649.47;10426448;28;20048;-67
2023/12/11 18:40:41;;;;;;;11.10;6.15;;;;;;;-8.29;93.68;100641.00;10432142;28;20063;-67
2023/12/11 18:45:43;;;;;;;10.45;6.07;;;;;;;-8.28;93.16;100642.66;10430912;28;20045;-68
2023/12/11 18:50:45;;;;;;;11.95;5.57;;;;;;;-8.22;93.53;100644.69;10432044;28;20052;-68
2023/12/11 18:55:48;;;;;;;12.90;6.72;;;;;;;-8.25;93.14;100635.19;10411010;28;20036;-68
2023/12/11 19:00:50;;;;;;;11.85;6.60;;;;;;;-8.18;93.11;100627.38;10414505;28;20611;-68
2023/12/11 19:05:52;;;;;;;12.23;6.88;;;;;;;-8.18;92.79;100626.56;10430978;28;20037;-68
2023/12/11 19:10:55;;;;;;;12.45;7.10;;;;;;;-8.17;92.48;100623.72;10440241;28;20030;-67
2023/12/11 19:15:59;;;;;;;12.48;6.63;;;;;;;-8.15;92.69;100627.09;10439713;28;20033;-68
2023/12/11 19:21:01;;;;;;;14.90;7.63;;;;;;;-8.15;92.96;100642.22;10435989;28;20509;-68
2023/12/11 19:26:04;;;;;;;12.93;6.28;;;;;;;-8.13;92.95;100629.59;10441226;28;20041;-68
2023/12/11 19:31:06;;;;;;;11.50;6.55;;;;;;;-8.09;92.80;100617.63;10424962;28;20437;-68
2023/12/11 19:36:09;;;;;;;10.52;6.28;;;;;;;-8.02;92.88;100618.63;10443341;28;20034;-68
2023/12/11 19:41:13;;;;;;;11.27;5.72;;;;;;;-8.01;92.45;100617.63;10447072;28;20038;-68
2023/12/11 19:46:17;;;;;;;9.60;5.55;;;;;;;-7.93;92.41;100617.66;10448375;28;20505;-68
2023/12/11 19:51:19;;;;;;;10.50;6.35;;;;;;;-7.90;92.60;100628.00;10445178;28;20041;-68
2023/12/11 19:56:21;;;;;;;10.38;5.93;;;;;;;-7.82;92.45;100613.84;10433978;28;20516;-68
2023/12/11 20:01:28;;;;;;;12.48;6.70;;;;;;;-7.84;92.62;100629.16;10432264;28;20048;-70
2023/12/11 20:06:31;;;;;;;10.90;6.38;;;;;;;-7.82;92.21;100609.34;10437643;28;20045;-68
2023/12/11 20:11:33;;;;;;;10.85;6.70;;;;;;;-7.82;92.65;100617.34;10441933;28;20041;-66
2023/12/11 20:16:35;;;;;;;10.93;5.95;;;;;;;-7.78;92.91;100617.88;10438175;28;20033;-66
2023/12/11 20:21:38;;;;;;;10.18;6.32;;;;;;;-7.76;92.93;100606.06;10434109;28;20590;-62
2023/12/11 20:26:41;;;;;;;10.90;6.13;;;;;;;-7.73;93.01;100611.06;10440924;28;20087;-62
2023/12/11 20:31:44;;;;;;;10.00;5.43;;;;;;;-7.69;92.36;100611.56;10441653;28;20038;-62
2023/12/11 20:36:49;;;;;;;10.15;5.80;;;;;;;-7.71;92.38;100614.38;10427746;28;20520;-62
2023/12/11 20:41:52;;;;;;;11.20;6.47;;;;;;;-7.68;93.08;100615.88;10438120;28;20033;-62
2023/12/11 20:46:55;;;;;;;9.77;5.68;;;;;;;-7.75;93.11;100613.06;10436640;28;20060;-62
2023/12/11 20:52:01;;;;;;;10.73;5.70;;;;;;;-7.73;93.42;100611.06;10432503;28;20549;-62
2023/12/11 20:57:03;;;;;;;10.23;5.90;;;;;;;-7.67;92.87;100601.56;10435692;28;20053;-62
2023/12/11 21:02:06;;;;;;;10.00;5.45;;;;;;;-7.60;93.41;100606.09;10434897;28;20064;-63
2023/12/11 21:07:09;;;;;;;8.40;4.25;;;;;;;-7.58;93.14;100595.28;10435635;28;20421;-63
2023/12/11 21:12:11;;;;;;;10.20;5.47;;;;;;;-7.54;93.14;100583.28;10432079;28;20033;-61
2023/12/11 21:17:14;;;;;;;10.57;5.10;;;;;;;-7.54;93.48;100593.09;10432804;28;20044;-61
2023/12/11 21:22:17;;;;;;;7.68;4.93;;;;;;;-7.44;93.75;100591.94;10431606;28;20041;-62
2023/12/11 21:27:19;;;;;;;10.38;5.05;;;;;;;-7.47;93.84;100580.75;10434614;28;20033;-62
2023/12/11 21:32:22;;;;;;;7.43;5.57;;;;;;;-7.44;93.51;100580.47;10438932;28;20416;-62
2023/12/11 21:37:24;;;;;;;9.73;5.65;;;;;;;-7.44;94.06;100581.28;10437968;28;20045;-63
2023/12/11 21:42:26;;;;;;;11.20;5.18;;;;;;;-7.34;93.64;100581.94;10433301;28;20037;-63
2023/12/11 21:47:29;;;;;;;9.52;5.22;;;;;;;-7.31;93.48;100568.28;10436559;28;20504;-63
2023/12/11 21:52:31;;;;;;;6.78;4.47;;;;;;;-7.28;93.25;100571.63;10441440;28;20037;-62
2023/12/11 21:57:34;;;;;;;7.95;4.70;;;;;;;-7.22;93.87;100571.78;10439933;28;20049;-62
2023/12/11 22:02:36;;;;;;;7.50;4.53;;;;;;;-7.23;93.58;100574.63;10428857;28;20041;-64
2023/12/11 22:07:39;;;;;;;9.32;5.63;;;;;;;-7.24;93.45;100571.13;10432460;28;20029;-62
2023/12/11 22:12:41;;;;;;;9.45;4.70;;;;;;;-7.25;93.64;100558.81;10427168;28;20030;-61
2023/12/11 22:17:44;;;;;;;8.18;4.72;;;;;;;-7.19;93.27;100563.44;10439004;28;20040;-64
2023/12/11 22:22:47;;;;;;;8.27;4.78;;;;;;;-7.12;93.65;100556.44;10428118;28;20037;-62
2023/12/11 22:27:50;;;;;;;7.65;4.20;;;;;;;-7.12;93.89;100561.75;10429645;28;20025;-62
2023/12/11 22:32:52;;;;;;;7.28;4.50;;;;;;;-7.05;93.43;100552.09;10435051;28;20045;-63
2023/12/11 22:37:54;;;;;;;8.63;4.07;;;;;;;-7.06;93.99;100554.94;10426054;28;20537;-63
2023/12/11 22:42:57;;;;;;;6.70;3.97;;;;;;;-6.97;93.71;100553.06;10414348;28;20050;-64
2023/12/11 22:47:59;;;;;;;6.32;3.78;;;;;;;-7.04;93.50;100552.94;10436266;28;20037;-62
2023/12/11 22:53:01;;;;;;;7.97;4.00;;;;;;;-7.01;93.37;100564.09;10420402;28;20037;-63
2023/12/11 22:58:04;;;;;;;9.80;5.80;;;;;;;-6.97;93.67;100569.09;10443220;28;20048;-62